createdAt,value
2022-12-07T00:01:52.473Z,3.40
2022-12-07T00:04:19.450Z,3.40
2022-12-07T00:06:47.161Z,3.50
2022-12-07T00:09:14.834Z,3.40
2022-12-07T00:11:41.917Z,3.40
2022-12-07T00:14:11.066Z,3.50
2022-12-07T00:16:38.004Z,3.50
2022-12-07T00:19:05.096Z,3.50
2022-12-07T00:21:32.884Z,3.50
2022-12-07T00:24:00.096Z,3.50
2022-12-07T00:26:28.246Z,3.50
2022-12-07T00:28:59.046Z,3.50
2022-12-07T00:31:27.302Z,3.60
2022-12-07T00:33:54.355Z,3.60
2022-12-07T00:36:26.721Z,3.60
2022-12-07T00:38:54.612Z,3.60
2022-12-07T00:41:22.431Z,3.70
2022-12-07T00:43:49.577Z,3.70
2022-12-07T00:46:16.626Z,3.70
2022-12-07T00:48:43.767Z,3.70
2022-12-07T00:51:11.145Z,3.70
2022-12-07T00:53:41.672Z,3.70
2022-12-07T00:56:27.640Z,3.80
2022-12-07T00:58:55.317Z,3.80
2022-12-07T01:01:22.658Z,3.80
2022-12-07T01:03:49.706Z,3.80
2022-12-07T01:06:17.525Z,3.90
2022-12-07T01:08:44.720Z,3.90
2022-12-07T01:11:12.911Z,3.80
2022-12-07T01:13:39.844Z,3.90
2022-12-07T01:16:06.952Z,3.80
2022-12-07T01:18:34.554Z,3.90
2022-12-07T01:21:21.673Z,3.80
2022-12-07T01:23:48.939Z,3.70
2022-12-07T01:26:17.258Z,3.70
2022-12-07T01:28:44.416Z,3.70
2022-12-07T01:31:18.401Z,3.70
2022-12-07T01:33:46.312Z,3.70
2022-12-07T01:36:17.070Z,3.70
2022-12-07T01:38:44.315Z,3.70
2022-12-07T01:41:11.381Z,3.70
2022-12-07T01:43:38.331Z,3.70
2022-12-07T01:46:05.434Z,3.60
2022-12-07T01:48:36.323Z,3.70
2022-12-07T01:51:05.303Z,3.70
2022-12-07T01:53:32.260Z,3.70
2022-12-07T01:55:59.417Z,3.60
2022-12-07T01:58:26.434Z,3.60
2022-12-07T02:00:53.405Z,3.60
2022-12-07T02:03:25.448Z,3.60
2022-12-07T02:05:52.434Z,3.70
2022-12-07T02:08:19.470Z,3.70
2022-12-07T02:10:46.517Z,3.60
2022-12-07T02:13:14.542Z,3.60
2022-12-07T02:16:00.037Z,3.60
2022-12-07T02:18:30.177Z,3.60
2022-12-07T02:20:58.791Z,3.50
2022-12-07T02:23:28.711Z,3.50
2022-12-07T02:26:02.404Z,3.50
2022-12-07T02:28:29.348Z,3.50
2022-12-07T02:30:56.935Z,3.50
2022-12-07T02:33:30.585Z,3.40
2022-12-07T02:36:02.697Z,3.30
2022-12-07T02:38:59.206Z,3.20
2022-12-07T02:41:26.239Z,3.20
2022-12-07T02:43:56.818Z,3.00
2022-12-07T02:46:42.473Z,2.90
2022-12-07T02:49:09.451Z,2.80
2022-12-07T02:51:39.572Z,2.80
2022-12-07T02:54:10.703Z,2.70
2022-12-07T02:56:48.048Z,2.70
2022-12-07T02:59:27.205Z,2.60
2022-12-07T03:02:01.863Z,2.50
2022-12-07T03:04:47.484Z,2.50
2022-12-07T03:07:17.406Z,2.40
2022-12-07T03:09:56.964Z,2.40
2022-12-07T03:12:26.250Z,2.40
2022-12-07T03:15:05.169Z,2.40
2022-12-07T03:17:33.033Z,2.30
2022-12-07T03:20:00.925Z,2.30
2022-12-07T03:22:29.239Z,2.30
2022-12-07T03:24:59.378Z,2.20
2022-12-07T03:27:30.934Z,2.20
2022-12-07T03:30:07.525Z,2.10
2022-12-07T03:33:00.597Z,2.10
2022-12-07T03:35:31.981Z,2.10
2022-12-07T03:38:13.579Z,2.00
2022-12-07T03:40:40.488Z,2.00
2022-12-07T03:43:07.433Z,2.00
2022-12-07T03:45:38.466Z,1.90
2022-12-07T03:48:08.593Z,1.90
2022-12-07T03:50:38.338Z,2.00
2022-12-07T03:53:16.343Z,2.00
2022-12-07T03:55:44.057Z,2.00
2022-12-07T03:58:12.172Z,2.00
2022-12-07T04:00:40.002Z,2.10
2022-12-07T04:03:06.966Z,2.20
2022-12-07T04:05:33.992Z,2.20
2022-12-07T04:08:00.972Z,2.20
2022-12-07T04:10:27.879Z,2.30
2022-12-07T04:12:54.842Z,2.30
2022-12-07T04:15:21.803Z,2.30
2022-12-07T04:17:48.818Z,2.30
2022-12-07T04:20:15.774Z,2.30
2022-12-07T04:22:42.711Z,2.40
2022-12-07T04:25:09.662Z,2.40
2022-12-07T04:27:36.685Z,2.40
2022-12-07T04:30:04.038Z,2.30
2022-12-07T04:32:31.125Z,2.40
2022-12-07T04:34:58.061Z,2.40
2022-12-07T04:37:25.135Z,2.30
2022-12-07T04:39:52.149Z,2.30
2022-12-07T04:42:19.101Z,2.30
2022-12-07T04:44:46.043Z,2.30
2022-12-07T04:47:13.109Z,2.30
2022-12-07T04:49:40.163Z,2.20
2022-12-07T04:52:07.296Z,2.20
2022-12-07T04:54:34.335Z,2.20
2022-12-07T04:57:01.279Z,2.20
2022-12-07T04:59:28.307Z,2.20
2022-12-07T05:01:55.313Z,2.20
2022-12-07T05:04:22.194Z,2.20
2022-12-07T05:06:49.098Z,2.20
2022-12-07T05:09:16.369Z,2.10
2022-12-07T05:11:44.305Z,2.20
2022-12-07T05:14:11.348Z,2.20
2022-12-07T05:16:38.534Z,2.20
2022-12-07T05:19:05.475Z,2.20
2022-12-07T05:21:32.473Z,2.20
2022-12-07T05:23:59.522Z,2.20
2022-12-07T05:26:26.827Z,2.20
2022-12-07T05:28:54.393Z,2.30
2022-12-07T05:31:21.479Z,2.30
2022-12-07T05:33:48.517Z,2.30
2022-12-07T05:36:15.533Z,2.40
2022-12-07T05:38:42.551Z,2.40
2022-12-07T05:41:29.545Z,2.40
2022-12-07T05:43:57.104Z,2.40
2022-12-07T05:46:24.075Z,2.40
2022-12-07T05:48:51.330Z,2.40
2022-12-07T05:51:18.285Z,2.50
2022-12-07T05:53:45.215Z,2.40
2022-12-07T05:56:12.192Z,2.50
2022-12-07T05:58:57.624Z,2.50
2022-12-07T06:01:24.623Z,2.50
2022-12-07T06:03:51.616Z,2.60
2022-12-07T06:06:18.853Z,2.60
2022-12-07T06:08:46.017Z,2.60
2022-12-07T06:11:31.497Z,2.60
2022-12-07T06:13:58.390Z,2.70
2022-12-07T06:16:25.353Z,2.60
2022-12-07T06:18:52.503Z,2.70
2022-12-07T06:21:19.388Z,2.70
2022-12-07T06:23:46.493Z,2.80
2022-12-07T06:26:13.379Z,2.80
2022-12-07T06:28:40.475Z,2.90
2022-12-07T06:31:13.482Z,2.80
2022-12-07T06:33:41.195Z,2.80
2022-12-07T06:36:08.386Z,2.80
2022-12-07T06:38:35.333Z,2.90
2022-12-07T06:41:02.287Z,2.80
2022-12-07T06:43:29.371Z,2.80
2022-12-07T06:45:56.308Z,2.80
2022-12-07T06:48:23.380Z,2.70
2022-12-07T06:50:54.679Z,2.70
2022-12-07T06:53:22.713Z,2.70
2022-12-07T06:55:49.792Z,2.70
2022-12-07T06:58:16.890Z,2.70
2022-12-07T07:00:44.339Z,2.70
2022-12-07T07:03:11.300Z,2.60
2022-12-07T07:05:38.230Z,2.60
2022-12-07T07:08:21.941Z,2.60
2022-12-07T07:10:49.608Z,2.60
2022-12-07T07:13:16.547Z,2.60
2022-12-07T07:15:43.671Z,2.60
2022-12-07T07:18:10.577Z,2.70
2022-12-07T07:20:37.598Z,2.60
2022-12-07T07:23:04.592Z,2.70
2022-12-07T07:25:31.717Z,2.60
2022-12-07T07:27:58.658Z,2.60
2022-12-07T07:30:25.781Z,2.60
2022-12-07T07:32:52.906Z,2.70
2022-12-07T07:35:20.223Z,2.70
2022-12-07T07:37:47.179Z,2.70
2022-12-07T07:40:14.188Z,2.70
2022-12-07T07:42:41.315Z,2.80
2022-12-07T07:45:08.511Z,2.80
2022-12-07T07:47:35.476Z,2.80
2022-12-07T07:50:02.688Z,2.90
2022-12-07T07:52:29.965Z,2.90
2022-12-07T07:54:56.905Z,3.00
2022-12-07T07:57:24.108Z,3.00
2022-12-07T07:59:51.228Z,3.00
2022-12-07T08:02:18.660Z,3.10
2022-12-07T08:04:46.042Z,3.10
2022-12-07T08:07:13.290Z,3.00
2022-12-07T08:09:40.223Z,3.10
2022-12-07T08:12:07.213Z,3.10
2022-12-07T08:14:34.946Z,3.10
2022-12-07T08:17:02.278Z,3.20
2022-12-07T08:19:29.233Z,3.20
2022-12-07T08:21:57.101Z,3.20
2022-12-07T08:24:24.351Z,3.20
2022-12-07T08:26:51.463Z,3.20
2022-12-07T08:29:18.647Z,3.20
2022-12-07T08:31:45.681Z,3.30
2022-12-07T08:34:12.959Z,3.30
2022-12-07T08:36:40.005Z,3.30
2022-12-07T08:41:53.973Z,3.30
2022-12-07T08:44:21.130Z,3.40
2022-12-07T08:46:52.776Z,3.40
2022-12-07T08:49:21.265Z,3.40
2022-12-07T08:51:48.316Z,3.50
2022-12-07T08:54:15.794Z,3.50
2022-12-07T08:56:42.802Z,3.60
2022-12-07T08:59:09.828Z,3.60
2022-12-07T09:01:36.825Z,3.70
2022-12-07T09:04:03.846Z,3.70
2022-12-07T09:06:30.877Z,3.80
2022-12-07T09:08:59.097Z,3.90
2022-12-07T09:11:28.798Z,3.90
2022-12-07T09:13:56.337Z,3.90
2022-12-07T09:16:23.345Z,3.90
2022-12-07T09:18:50.435Z,4.00
2022-12-07T09:21:17.379Z,4.00
2022-12-07T09:23:44.431Z,4.00
2022-12-07T09:26:11.433Z,4.10
2022-12-07T09:28:38.664Z,4.10
2022-12-07T09:33:59.239Z,4.20
2022-12-07T09:36:26.458Z,4.20
2022-12-07T09:38:53.453Z,4.20
2022-12-07T09:41:20.676Z,4.20
2022-12-07T09:43:48.205Z,4.20
2022-12-07T09:46:16.497Z,4.20
2022-12-07T09:48:43.591Z,4.20
2022-12-07T09:51:23.653Z,4.30
2022-12-07T09:53:52.266Z,4.30
2022-12-07T09:56:19.365Z,4.30
2022-12-07T09:58:46.696Z,4.40
2022-12-07T10:01:14.838Z,4.50
2022-12-07T10:03:43.795Z,4.60
2022-12-07T10:06:11.098Z,4.70
2022-12-07T10:08:38.063Z,4.70
2022-12-07T10:11:05.168Z,4.70
2022-12-07T10:13:41.044Z,4.80
2022-12-07T10:16:08.537Z,4.80
2022-12-07T10:18:39.084Z,4.70
2022-12-07T10:21:06.129Z,4.70
2022-12-07T10:23:33.104Z,4.70
2022-12-07T10:26:00.117Z,4.80
2022-12-07T10:28:38.895Z,4.80
2022-12-07T10:31:18.605Z,4.80
2022-12-07T10:33:55.482Z,4.90
2022-12-07T10:36:35.340Z,4.90
2022-12-07T10:39:21.590Z,5.00
2022-12-07T10:41:58.225Z,5.10
2022-12-07T10:44:26.360Z,5.10
2022-12-07T10:47:03.513Z,5.10
2022-12-07T10:49:33.357Z,5.10
2022-12-07T10:52:09.416Z,5.10
2022-12-07T10:54:42.232Z,5.00
2022-12-07T10:57:12.929Z,5.00
2022-12-07T10:59:46.039Z,4.90
2022-12-07T11:02:16.366Z,4.90
2022-12-07T11:04:56.831Z,4.90
2022-12-07T11:07:29.168Z,4.90
2022-12-07T11:10:14.031Z,4.90
2022-12-07T11:12:59.557Z,4.90
2022-12-07T11:15:41.287Z,4.90
2022-12-07T11:18:16.996Z,5.00
2022-12-07T11:20:47.931Z,5.10
2022-12-07T11:23:30.036Z,5.10
2022-12-07T11:26:09.486Z,5.20
2022-12-07T11:28:41.003Z,5.20
2022-12-07T11:31:07.975Z,5.20
2022-12-07T11:33:41.207Z,5.20
2022-12-07T11:36:12.445Z,5.20
2022-12-07T11:38:40.061Z,5.10
2022-12-07T11:41:16.970Z,5.10
2022-12-07T11:43:53.087Z,5.10
2022-12-07T11:46:20.185Z,5.10
2022-12-07T11:48:47.086Z,5.10
2022-12-07T11:51:14.158Z,5.10
2022-12-07T11:53:43.537Z,5.10
2022-12-07T11:56:13.821Z,5.10
2022-12-07T11:58:43.675Z,5.10
2022-12-07T12:01:21.274Z,5.10
2022-12-07T12:03:52.937Z,5.10
2022-12-07T12:06:20.716Z,5.10
2022-12-07T12:11:39.163Z,5.10
2022-12-07T12:17:21.885Z,5.30
2022-12-07T12:20:04.119Z,5.40
2022-12-07T12:22:38.111Z,5.40
2022-12-07T12:25:20.785Z,5.40
2022-12-07T12:27:48.080Z,5.30
2022-12-07T12:30:26.004Z,5.30
2022-12-07T12:32:53.084Z,5.30
2022-12-07T12:35:24.208Z,5.40
2022-12-07T12:37:52.960Z,5.40
2022-12-07T12:40:23.077Z,5.40
2022-12-07T12:42:52.127Z,5.40
2022-12-07T12:45:22.273Z,5.40
2022-12-07T12:47:53.935Z,5.50
2022-12-07T12:50:25.540Z,5.40
2022-12-07T12:52:54.100Z,5.50
2022-12-07T12:55:22.446Z,5.50
2022-12-07T12:58:09.404Z,5.50
2022-12-07T13:00:36.634Z,5.50
2022-12-07T13:03:05.583Z,5.50
2022-12-07T13:05:35.864Z,5.50
2022-12-07T13:08:03.659Z,5.50
2022-12-07T13:10:38.176Z,5.40
2022-12-07T13:13:15.126Z,5.40
2022-12-07T13:15:42.072Z,5.40
2022-12-07T13:18:09.117Z,5.40
2022-12-07T13:20:46.525Z,5.40
2022-12-07T13:23:13.679Z,5.40
2022-12-07T13:25:52.278Z,5.40
2022-12-07T13:28:19.554Z,5.30
2022-12-07T13:31:01.869Z,5.30
2022-12-07T13:33:29.006Z,5.30
2022-12-07T13:35:56.852Z,5.30
2022-12-07T13:38:28.508Z,5.20
2022-12-07T13:41:02.323Z,5.20
2022-12-07T13:43:29.274Z,5.10
2022-12-07T13:45:59.556Z,5.20
2022-12-07T13:48:34.973Z,5.20
2022-12-07T13:51:02.508Z,5.10
2022-12-07T13:53:31.417Z,5.10
2022-12-07T13:55:59.087Z,5.10
2022-12-07T13:58:26.600Z,5.10
2022-12-07T14:00:53.623Z,5.20
2022-12-07T14:03:20.708Z,5.10
2022-12-07T14:05:47.952Z,5.10
2022-12-07T14:08:15.544Z,5.10
2022-12-07T14:10:43.780Z,5.10
2022-12-07T14:13:29.468Z,5.00
2022-12-07T14:15:56.519Z,5.00
2022-12-07T14:18:30.278Z,5.00
2022-12-07T14:21:04.493Z,4.90
2022-12-07T14:23:31.425Z,4.90
2022-12-07T14:26:14.726Z,4.90
2022-12-07T14:28:41.949Z,4.90
2022-12-07T14:31:26.131Z,4.90
2022-12-07T14:33:59.958Z,4.90
2022-12-07T14:36:26.969Z,4.80
2022-12-07T14:38:57.334Z,4.80
2022-12-07T14:41:42.803Z,4.80
2022-12-07T14:44:34.043Z,4.80
2022-12-07T14:49:47.265Z,4.70
2022-12-07T14:55:02.648Z,4.60
2022-12-07T14:57:29.675Z,4.60
2022-12-07T14:59:56.624Z,4.50
2022-12-07T15:02:23.516Z,4.50
2022-12-07T15:04:50.598Z,4.50
2022-12-07T15:07:21.093Z,4.50
2022-12-07T15:09:48.464Z,4.40
2022-12-07T15:12:15.428Z,4.40
2022-12-07T15:14:42.389Z,4.40
2022-12-07T15:17:15.795Z,4.40
2022-12-07T15:19:50.224Z,4.40
2022-12-07T15:22:17.278Z,4.30
2022-12-07T15:24:44.305Z,4.30
2022-12-07T15:27:11.437Z,4.30
2022-12-07T15:29:38.400Z,4.30
2022-12-07T15:32:05.557Z,4.30
2022-12-07T15:34:39.479Z,4.20
2022-12-07T15:37:07.644Z,4.20
2022-12-07T15:39:34.788Z,4.20
2022-12-07T15:42:01.750Z,4.20
2022-12-07T15:44:47.184Z,4.20
2022-12-07T15:47:14.158Z,4.20
2022-12-07T15:49:41.156Z,4.10
2022-12-07T15:52:08.110Z,4.10
2022-12-07T15:54:35.094Z,4.10
2022-12-07T15:57:02.159Z,4.00
2022-12-07T15:59:29.607Z,4.00
2022-12-07T16:01:56.865Z,4.00
2022-12-07T16:04:24.007Z,4.00
2022-12-07T16:06:51.990Z,3.90
2022-12-07T16:09:19.533Z,3.90
2022-12-07T16:11:46.503Z,3.90
2022-12-07T16:14:14.564Z,3.90
2022-12-07T16:16:42.834Z,3.80
2022-12-07T16:19:10.078Z,3.80
2022-12-07T16:21:37.050Z,3.80
2022-12-07T16:24:04.351Z,3.80
2022-12-07T16:26:31.529Z,3.70
2022-12-07T16:28:58.691Z,3.70
2022-12-07T16:31:26.333Z,3.70
2022-12-07T16:33:53.895Z,3.70
2022-12-07T16:36:47.233Z,3.60
2022-12-07T16:39:10.133Z,3.60
2022-12-07T16:41:37.481Z,3.60
2022-12-07T16:44:06.914Z,3.60
2022-12-07T16:46:34.385Z,3.60
2022-12-07T16:49:01.804Z,3.60
2022-12-07T16:51:28.844Z,3.50
2022-12-07T16:53:55.779Z,3.50
2022-12-07T16:56:22.667Z,3.50
2022-12-07T16:58:50.737Z,3.40
2022-12-07T17:01:20.908Z,3.40
2022-12-07T17:03:47.924Z,3.40
2022-12-07T17:06:18.525Z,3.40
2022-12-07T17:08:45.610Z,3.40
2022-12-07T17:11:16.587Z,3.40
2022-12-07T17:14:02.392Z,3.40
2022-12-07T17:16:29.684Z,3.40
2022-12-07T17:18:56.744Z,3.40
2022-12-07T17:21:23.936Z,3.40
2022-12-07T17:23:51.214Z,3.40
2022-12-07T17:26:19.322Z,3.50
2022-12-07T17:28:46.324Z,3.50
2022-12-07T17:31:14.110Z,3.50
2022-12-07T17:33:41.134Z,3.50
2022-12-07T17:36:27.224Z,3.50
2022-12-07T17:38:54.262Z,3.50
2022-12-07T17:41:43.940Z,3.40
2022-12-07T17:44:11.808Z,3.40
2022-12-07T17:46:38.758Z,3.40
2022-12-07T17:49:05.934Z,3.40
2022-12-07T17:51:51.629Z,3.40
2022-12-07T17:54:19.004Z,3.40
2022-12-07T17:56:45.990Z,3.40
2022-12-07T17:59:12.932Z,3.40
2022-12-07T18:01:39.863Z,3.40
2022-12-07T18:04:06.826Z,3.40
2022-12-07T18:06:33.794Z,3.40
2022-12-07T18:09:00.760Z,3.40
2022-12-07T18:11:27.770Z,3.40
2022-12-07T18:13:54.886Z,3.40
2022-12-07T18:16:26.018Z,3.40
2022-12-07T18:18:55.936Z,3.40
2022-12-07T18:21:23.699Z,3.40
2022-12-07T18:23:51.362Z,3.40
2022-12-07T18:26:18.702Z,3.40
2022-12-07T18:28:45.738Z,3.40
2022-12-07T18:31:15.312Z,3.40
2022-12-07T18:33:42.998Z,3.40
2022-12-07T18:36:10.152Z,3.40
2022-12-07T18:38:37.198Z,3.50
2022-12-07T18:41:04.339Z,3.40
2022-12-07T18:43:31.215Z,3.50
2022-12-07T18:45:58.236Z,3.50
2022-12-07T18:48:25.252Z,3.50
2022-12-07T18:51:12.488Z,3.50
2022-12-07T18:53:39.545Z,3.50
2022-12-07T18:56:26.790Z,3.50
2022-12-07T18:59:13.278Z,3.50
2022-12-07T19:01:40.589Z,3.50
2022-12-07T19:04:07.867Z,3.50
2022-12-07T19:06:35.013Z,3.40
2022-12-07T19:09:02.335Z,3.40
2022-12-07T19:11:49.083Z,3.40
2022-12-07T19:14:25.884Z,3.40
2022-12-07T19:16:54.176Z,3.30
2022-12-07T19:19:21.794Z,3.30
2022-12-07T19:21:48.867Z,3.20
2022-12-07T19:24:19.821Z,3.20
2022-12-07T19:26:50.004Z,3.20
2022-12-07T19:29:16.974Z,3.20
2022-12-07T19:31:43.968Z,3.20
2022-12-07T19:34:11.459Z,3.20
2022-12-07T19:36:38.672Z,3.20
2022-12-07T19:39:11.351Z,3.20
2022-12-07T19:41:44.166Z,3.20
2022-12-07T19:44:11.560Z,3.20
2022-12-07T19:46:38.686Z,3.30
2022-12-07T19:49:05.624Z,3.30
2022-12-07T19:51:32.672Z,3.30
2022-12-07T19:54:00.220Z,3.30
2022-12-07T19:56:27.925Z,3.30
2022-12-07T19:58:54.944Z,3.30
2022-12-07T20:01:22.112Z,3.30
2022-12-07T20:03:49.179Z,3.30
2022-12-07T20:06:17.745Z,3.40
2022-12-07T20:08:44.989Z,3.30
2022-12-07T20:11:30.360Z,3.30
2022-12-07T20:13:57.300Z,3.30
2022-12-07T20:16:24.456Z,3.30
2022-12-07T20:18:57.328Z,3.30
2022-12-07T20:21:25.215Z,3.30
2022-12-07T20:23:52.354Z,3.30
2022-12-07T20:26:19.640Z,3.30
2022-12-07T20:28:47.318Z,3.30
2022-12-07T20:31:14.878Z,3.30
2022-12-07T20:33:42.283Z,3.30
2022-12-07T20:36:10.041Z,3.20
2022-12-07T20:38:37.142Z,3.20
2022-12-07T20:41:05.196Z,3.30
2022-12-07T20:43:32.223Z,3.30
2022-12-07T20:45:59.189Z,3.30
2022-12-07T20:48:26.432Z,3.30
2022-12-07T20:50:53.363Z,3.20
2022-12-07T20:53:20.354Z,3.20
2022-12-07T20:55:47.393Z,3.10
2022-12-07T20:58:14.508Z,3.20
2022-12-07T21:00:41.979Z,3.10
2022-12-07T21:03:09.215Z,3.10
2022-12-07T21:05:36.206Z,3.10
2022-12-07T21:08:03.242Z,3.10
2022-12-07T21:10:30.239Z,3.00
2022-12-07T21:12:57.256Z,3.00
2022-12-07T21:15:24.306Z,2.90
2022-12-07T21:17:51.305Z,2.90
2022-12-07T21:20:18.289Z,2.90
2022-12-07T21:22:47.052Z,2.80
2022-12-07T21:25:14.098Z,2.80
2022-12-07T21:27:40.967Z,2.70
2022-12-07T21:30:08.097Z,2.70
2022-12-07T21:32:35.105Z,2.70
2022-12-07T21:35:02.471Z,2.70
2022-12-07T21:37:29.542Z,2.60
2022-12-07T21:39:56.984Z,2.60
2022-12-07T21:42:24.133Z,2.50
2022-12-07T21:44:51.111Z,2.50
2022-12-07T21:47:18.043Z,2.50
2022-12-07T21:49:44.915Z,2.40
2022-12-07T21:52:11.917Z,2.40
2022-12-07T21:54:40.460Z,2.40
2022-12-07T21:57:07.473Z,2.30
2022-12-07T21:59:34.438Z,2.30
2022-12-07T22:02:01.444Z,2.30
2022-12-07T22:04:28.544Z,2.30
2022-12-07T22:06:57.302Z,2.30
2022-12-07T22:09:24.382Z,2.20
2022-12-07T22:11:51.387Z,2.20
2022-12-07T22:14:37.221Z,2.20
2022-12-07T22:17:04.293Z,2.20
2022-12-07T22:19:31.259Z,2.20
2022-12-07T22:21:58.310Z,2.10
2022-12-07T22:24:25.247Z,2.10
2022-12-07T22:26:52.140Z,2.10
2022-12-07T22:29:19.173Z,2.10
2022-12-07T22:31:52.053Z,2.10
2022-12-07T22:34:20.709Z,2.20
2022-12-07T22:36:47.759Z,2.10
2022-12-07T22:39:14.710Z,2.20
2022-12-07T22:41:41.670Z,2.20
2022-12-07T22:44:08.948Z,2.10
2022-12-07T22:46:36.036Z,2.10
2022-12-07T22:49:03.338Z,2.10
2022-12-07T22:51:36.849Z,2.10
2022-12-07T22:54:05.116Z,2.10
2022-12-07T22:56:33.358Z,2.10
2022-12-07T22:59:00.961Z,2.10
2022-12-07T23:01:28.058Z,2.10
2022-12-07T23:03:55.140Z,2.20
2022-12-07T23:06:23.622Z,2.20
2022-12-07T23:08:50.884Z,2.20
2022-12-07T23:11:49.571Z,2.20
2022-12-07T23:14:18.135Z,2.20
2022-12-07T23:16:45.139Z,2.10
2022-12-07T23:19:12.060Z,2.10
2022-12-07T23:21:40.255Z,2.10
2022-12-07T23:24:07.550Z,2.10
2022-12-07T23:26:34.554Z,2.10
2022-12-07T23:29:01.475Z,2.10
2022-12-07T23:31:28.513Z,2.10
2022-12-07T23:33:55.537Z,2.10
2022-12-07T23:36:23.301Z,2.10
2022-12-07T23:38:50.691Z,2.10
2022-12-07T23:41:18.519Z,2.10
2022-12-07T23:43:45.509Z,2.10
2022-12-07T23:46:14.156Z,2.20
2022-12-07T23:48:41.234Z,2.20
2022-12-07T23:51:08.352Z,2.20
2022-12-07T23:53:35.641Z,2.20
2022-12-07T23:56:02.503Z,2.20
2022-12-07T23:58:29.497Z,2.10
